Eaton, Idaho
Current Conditions -  °F | °C
As of 12:53 PM on Saturday 20 Dec 2014 (Local Time) from KONO Reporting Station
Light Rain Light Rain  
Wind Chill: 44°   Ceiling: 4500
Heat Index: 44°   Visibility: 9mi
Dew Point: 41°   Wind: 3mph
Humidity: 89%   Direction: 100°E
Pressure: 29.97"   Gusts: NA
Location:  44.398°N, 116.943°W
Report Text: KONO 201953Z AUTO 10003KT 9SM -RA BKN045 OVC055 07/05 A2997 RMK AO2 RAB1856 SLP160 P0002 T00670050
Loading
Personal Weather Stations






























Interactive Weather Map New forecast layout! Learn more

10-Day Weather Forecast

Advertisements
Track Severe Weather on mobile